sensor_id;sensor_type;location;lat;lon;timestamp;P1;P2;P0
77777;PMS5003;66966;-34.746;138.604;2023-01-28T00:00:08;1;0;
77777;PMS5003;66966;-34.746;138.604;2023-01-28T00:02:33;0;0;
77777;PMS5003;66966;-34.746;138.604;2023-01-28T00:04:58;0;0;
77777;PMS5003;66966;-34.746;138.604;2023-01-28T00:07:23;0;0;
77777;PMS5003;66966;-34.746;138.604;2023-01-28T00:09:48;1;1;
77777;PMS5003;66966;-34.746;138.604;2023-01-28T00:12:13;1;0;
77777;PMS5003;66966;-34.746;138.604;2023-01-28T00:14:38;0;0;
77777;PMS5003;66966;-34.746;138.604;2023-01-28T00:17:04;0;0;
77777;PMS5003;66966;-34.746;138.604;2023-01-28T00:19:28;0;0;
77777;PMS5003;66966;-34.746;138.604;2023-01-28T00:21:53;0;0;
77777;PMS5003;66966;-34.746;138.604;2023-01-28T00:24:18;0;0;
77777;PMS5003;66966;-34.746;138.604;2023-01-28T00:26:43;0;0;
77777;PMS5003;66966;-34.746;138.604;2023-01-28T00:29:08;0;0;
77777;PMS5003;66966;-34.746;138.604;2023-01-28T00:31:33;0;0;
77777;PMS5003;66966;-34.746;138.604;2023-01-28T00:33:58;0;0;
77777;PMS5003;66966;-34.746;138.604;2023-01-28T00:36:24;0;0;
77777;PMS5003;66966;-34.746;138.604;2023-01-28T00:38:49;0;0;
77777;PMS5003;66966;-34.746;138.604;2023-01-28T00:41:14;0;0;
77777;PMS5003;66966;-34.746;138.604;2023-01-28T00:43:39;0;0;
77777;PMS5003;66966;-34.746;138.604;2023-01-28T00:46:04;0;0;
77777;PMS5003;66966;-34.746;138.604;2023-01-28T00:48:29;0;0;
77777;PMS5003;66966;-34.746;138.604;2023-01-28T00:50:54;0;0;
77777;PMS5003;66966;-34.746;138.604;2023-01-28T00:53:19;0;0;
77777;PMS5003;66966;-34.746;138.604;2023-01-28T00:55:44;1;0;
77777;PMS5003;66966;-34.746;138.604;2023-01-28T00:58:09;0;0;
77777;PMS5003;66966;-34.746;138.604;2023-01-28T01:00:34;0;0;
77777;PMS5003;66966;-34.746;138.604;2023-01-28T01:03:00;0;0;
77777;PMS5003;66966;-34.746;138.604;2023-01-28T01:05:24;2;0;
77777;PMS5003;66966;-34.746;138.604;2023-01-28T01:07:49;0;0;
77777;PMS5003;66966;-34.746;138.604;2023-01-28T01:10:16;1;0;
77777;PMS5003;66966;-34.746;138.604;2023-01-28T01:12:39;0;0;
77777;PMS5003;66966;-34.746;138.604;2023-01-28T01:15:06;0;0;
77777;PMS5003;66966;-34.746;138.604;2023-01-28T01:17:30;0;0;
77777;PMS5003;66966;-34.746;138.604;2023-01-28T01:19:55;1;1;
77777;PMS5003;66966;-34.746;138.604;2023-01-28T01:22:20;0;0;
77777;PMS5003;66966;-34.746;138.604;2023-01-28T01:24:45;0;0;
77777;PMS5003;66966;-34.746;138.604;2023-01-28T01:27:10;0;0;
77777;PMS5003;66966;-34.746;138.604;2023-01-28T01:29:35;1;0;
77777;PMS5003;66966;-34.746;138.604;2023-01-28T01:32:00;2;1;
77777;PMS5003;66966;-34.746;138.604;2023-01-28T01:34:25;1;1;
77777;PMS5003;66966;-34.746;138.604;2023-01-28T01:36:50;0;0;
77777;PMS5003;66966;-34.746;138.604;2023-01-28T01:39:16;1;1;
77777;PMS5003;66966;-34.746;138.604;2023-01-28T01:41:40;0;0;
77777;PMS5003;66966;-34.746;138.604;2023-01-28T01:44:06;1;0;
77777;PMS5003;66966;-34.746;138.604;2023-01-28T01:46:32;1;1;
77777;PMS5003;66966;-34.746;138.604;2023-01-28T01:48:55;1;1;
77777;PMS5003;66966;-34.746;138.604;2023-01-28T01:51:22;1;1;
77777;PMS5003;66966;-34.746;138.604;2023-01-28T01:53:47;1;1;
77777;PMS5003;66966;-34.746;138.604;2023-01-28T01:56:11;0;0;
77777;PMS5003;66966;-34.746;138.604;2023-01-28T01:58:36;0;0;
77777;PMS5003;66966;-34.746;138.604;2023-01-28T02:01:01;0;0;
77777;PMS5003;66966;-34.746;138.604;2023-01-28T02:03:27;1;1;
77777;PMS5003;66966;-34.746;138.604;2023-01-28T02:05:51;0;0;
77777;PMS5003;66966;-34.746;138.604;2023-01-28T02:08:16;0;0;
77777;PMS5003;66966;-34.746;138.604;2023-01-28T02:10:41;1;1;
77777;PMS5003;66966;-34.746;138.604;2023-01-28T02:13:06;0;0;
77777;PMS5003;66966;-34.746;138.604;2023-01-28T02:15:31;1;1;
77777;PMS5003;66966;-34.746;138.604;2023-01-28T02:17:56;0;0;
77777;PMS5003;66966;-34.746;138.604;2023-01-28T02:20:22;0;0;
77777;PMS5003;66966;-34.746;138.604;2023-01-28T02:22:54;0;0;
77777;PMS5003;66966;-34.746;138.604;2023-01-28T02:27:37;1;0;
77777;PMS5003;66966;-34.746;138.604;2023-01-28T02:30:03;0;0;
77777;PMS5003;66966;-34.746;138.604;2023-01-28T02:32:28;0;0;
77777;PMS5003;66966;-34.746;138.604;2023-01-28T02:34:53;3;1;
77777;PMS5003;66966;-34.746;138.604;2023-01-28T02:37:19;1;1;
77777;PMS5003;66966;-34.746;138.604;2023-01-28T02:39:44;1;1;
77777;PMS5003;66966;-34.746;138.604;2023-01-28T02:42:08;0;0;
77777;PMS5003;66966;-34.746;138.604;2023-01-28T02:44:33;0;0;
77777;PMS5003;66966;-34.746;138.604;2023-01-28T02:46:58;1;1;
77777;PMS5003;66966;-34.746;138.604;2023-01-28T02:49:25;1;1;
77777;PMS5003;66966;-34.746;138.604;2023-01-28T02:51:55;2;2;
77777;PMS5003;66966;-34.746;138.604;2023-01-28T02:54:15;2;1;
77777;PMS5003;66966;-34.746;138.604;2023-01-28T02:56:40;2;1;
77777;PMS5003;66966;-34.746;138.604;2023-01-28T02:59:06;1;1;
77777;PMS5003;66966;-34.746;138.604;2023-01-28T03:01:30;1;1;
77777;PMS5003;66966;-34.746;138.604;2023-01-28T03:03:57;1;1;
77777;PMS5003;66966;-34.746;138.604;2023-01-28T03:06:20;2;1;
77777;PMS5003;66966;-34.746;138.604;2023-01-28T03:08:45;2;2;
77777;PMS5003;66966;-34.746;138.604;2023-01-28T03:11:09;2;0;
77777;PMS5003;66966;-34.746;138.604;2023-01-28T03:13:34;2;2;
77777;PMS5003;66966;-34.746;138.604;2023-01-28T03:16:00;1;1;
77777;PMS5003;66966;-34.746;138.604;2023-01-28T03:18:26;1;1;
77777;PMS5003;66966;-34.746;138.604;2023-01-28T03:20:53;2;1;
77777;PMS5003;66966;-34.746;138.604;2023-01-28T03:23:17;3;3;
77777;PMS5003;66966;-34.746;138.604;2023-01-28T03:25:42;2;1;
77777;PMS5003;66966;-34.746;138.604;2023-01-28T03:28:07;2;1;
77777;PMS5003;66966;-34.746;138.604;2023-01-28T03:30:32;3;2;
77777;PMS5003;66966;-34.746;138.604;2023-01-28T03:32:56;1;1;
77777;PMS5003;66966;-34.746;138.604;2023-01-28T03:35:21;3;1;
77777;PMS5003;66966;-34.746;138.604;2023-01-28T03:37:46;2;2;
77777;PMS5003;66966;-34.746;138.604;2023-01-28T03:40:12;2;1;
77777;PMS5003;66966;-34.746;138.604;2023-01-28T03:42:36;2;1;
77777;PMS5003;66966;-34.746;138.604;2023-01-28T03:45:02;2;1;
77777;PMS5003;66966;-34.746;138.604;2023-01-28T03:47:28;3;2;
77777;PMS5003;66966;-34.746;138.604;2023-01-28T03:49:52;4;2;
77777;PMS5003;66966;-34.746;138.604;2023-01-28T03:52:18;4;1;
77777;PMS5003;66966;-34.746;138.604;2023-01-28T03:54:42;2;2;
77777;PMS5003;66966;-34.746;138.604;2023-01-28T03:57:07;1;1;
77777;PMS5003;66966;-34.746;138.604;2023-01-28T03:59:32;3;1;
77777;PMS5003;66966;-34.746;138.604;2023-01-28T04:01:58;1;1;
77777;PMS5003;66966;-34.746;138.604;2023-01-28T04:04:23;2;1;
77777;PMS5003;66966;-34.746;138.604;2023-01-28T04:06:48;2;2;
77777;PMS5003;66966;-34.746;138.604;2023-01-28T04:09:13;2;2;
77777;PMS5003;66966;-34.746;138.604;2023-01-28T04:11:38;2;1;
77777;PMS5003;66966;-34.746;138.604;2023-01-28T04:14:03;2;2;
77777;PMS5003;66966;-34.746;138.604;2023-01-28T04:16:28;2;1;
77777;PMS5003;66966;-34.746;138.604;2023-01-28T04:18:53;1;1;
77777;PMS5003;66966;-34.746;138.604;2023-01-28T04:21:18;2;1;
77777;PMS5003;66966;-34.746;138.604;2023-01-28T04:23:44;1;1;
77777;PMS5003;66966;-34.746;138.604;2023-01-28T04:26:09;1;1;
77777;PMS5003;66966;-34.746;138.604;2023-01-28T04:28:34;1;1;
77777;PMS5003;66966;-34.746;138.604;2023-01-28T04:30:59;2;1;
77777;PMS5003;66966;-34.746;138.604;2023-01-28T04:33:24;1;1;
77777;PMS5003;66966;-34.746;138.604;2023-01-28T04:35:49;1;0;
77777;PMS5003;66966;-34.746;138.604;2023-01-28T04:38:15;2;0;
77777;PMS5003;66966;-34.746;138.604;2023-01-28T04:40:39;0;0;
77777;PMS5003;66966;-34.746;138.604;2023-01-28T04:43:04;1;0;
77777;PMS5003;66966;-34.746;138.604;2023-01-28T04:45:30;0;0;
77777;PMS5003;66966;-34.746;138.604;2023-01-28T04:47:55;1;1;
77777;PMS5003;66966;-34.746;138.604;2023-01-28T04:50:20;0;0;
77777;PMS5003;66966;-34.746;138.604;2023-01-28T04:52:45;1;1;
77777;PMS5003;66966;-34.746;138.604;2023-01-28T04:55:10;0;0;
77777;PMS5003;66966;-34.746;138.604;2023-01-28T04:57:35;1;1;
77777;PMS5003;66966;-34.746;138.604;2023-01-28T05:00:00;0;0;
77777;PMS5003;66966;-34.746;138.604;2023-01-28T05:02:25;0;0;
77777;PMS5003;66966;-34.746;138.604;2023-01-28T05:04:50;0;0;
77777;PMS5003;66966;-34.746;138.604;2023-01-28T05:07:15;1;1;
77777;PMS5003;66966;-34.746;138.604;2023-01-28T05:09:40;0;0;
77777;PMS5003;66966;-34.746;138.604;2023-01-28T05:12:05;1;1;
77777;PMS5003;66966;-34.746;138.604;2023-01-28T05:14:31;1;1;
77777;PMS5003;66966;-34.746;138.604;2023-01-28T05:16:56;3;1;
77777;PMS5003;66966;-34.746;138.604;2023-01-28T05:19:21;3;2;
77777;PMS5003;66966;-34.746;138.604;2023-01-28T05:21:46;1;1;
77777;PMS5003;66966;-34.746;138.604;2023-01-28T05:24:11;1;1;
77777;PMS5003;66966;-34.746;138.604;2023-01-28T05:26:36;1;1;
77777;PMS5003;66966;-34.746;138.604;2023-01-28T05:29:01;1;1;
77777;PMS5003;66966;-34.746;138.604;2023-01-28T05:31:26;1;1;
77777;PMS5003;66966;-34.746;138.604;2023-01-28T05:33:51;2;1;
77777;PMS5003;66966;-34.746;138.604;2023-01-28T05:36:16;1;1;
77777;PMS5003;66966;-34.746;138.604;2023-01-28T05:38:42;2;2;
77777;PMS5003;66966;-34.746;138.604;2023-01-28T05:41:06;1;1;
77777;PMS5003;66966;-34.746;138.604;2023-01-28T05:43:31;0;0;
77777;PMS5003;66966;-34.746;138.604;2023-01-28T05:45:56;1;1;
77777;PMS5003;66966;-34.746;138.604;2023-01-28T05:48:22;1;1;
77777;PMS5003;66966;-34.746;138.604;2023-01-28T05:50:47;2;1;
77777;PMS5003;66966;-34.746;138.604;2023-01-28T05:53:12;1;1;
77777;PMS5003;66966;-34.746;138.604;2023-01-28T05:55:37;1;1;
77777;PMS5003;66966;-34.746;138.604;2023-01-28T05:58:02;1;1;
77777;PMS5003;66966;-34.746;138.604;2023-01-28T06:00:27;2;1;
77777;PMS5003;66966;-34.746;138.604;2023-01-28T06:02:53;2;2;
77777;PMS5003;66966;-34.746;138.604;2023-01-28T06:05:17;1;1;
77777;PMS5003;66966;-34.746;138.604;2023-01-28T06:07:43;1;1;
77777;PMS5003;66966;-34.746;138.604;2023-01-28T06:10:08;1;0;
77777;PMS5003;66966;-34.746;138.604;2023-01-28T06:12:33;1;1;
77777;PMS5003;66966;-34.746;138.604;2023-01-28T06:14:58;2;1;
77777;PMS5003;66966;-34.746;138.604;2023-01-28T06:17:23;1;1;
77777;PMS5003;66966;-34.746;138.604;2023-01-28T06:19:49;1;1;
77777;PMS5003;66966;-34.746;138.604;2023-01-28T06:22:13;2;2;
77777;PMS5003;66966;-34.746;138.604;2023-01-28T06:24:38;3;1;
77777;PMS5003;66966;-34.746;138.604;2023-01-28T06:27:03;1;1;
77777;PMS5003;66966;-34.746;138.604;2023-01-28T06:29:29;2;2;
77777;PMS5003;66966;-34.746;138.604;2023-01-28T06:31:54;1;0;
77777;PMS5003;66966;-34.746;138.604;2023-01-28T06:34:19;2;2;
77777;PMS5003;66966;-34.746;138.604;2023-01-28T06:36:44;3;3;
77777;PMS5003;66966;-34.746;138.604;2023-01-28T06:39:09;2;1;
77777;PMS5003;66966;-34.746;138.604;2023-01-28T06:41:34;2;2;
77777;PMS5003;66966;-34.746;138.604;2023-01-28T06:43:59;1;1;
77777;PMS5003;66966;-34.746;138.604;2023-01-28T06:46:24;5;4;
77777;PMS5003;66966;-34.746;138.604;2023-01-28T06:48:49;1;1;
77777;PMS5003;66966;-34.746;138.604;2023-01-28T06:51:15;2;2;
77777;PMS5003;66966;-34.746;138.604;2023-01-28T06:53:40;13;13;
77777;PMS5003;66966;-34.746;138.604;2023-01-28T06:56:05;2;2;
77777;PMS5003;66966;-34.746;138.604;2023-01-28T06:58:30;1;1;
77777;PMS5003;66966;-34.746;138.604;2023-01-28T07:00:55;1;1;
77777;PMS5003;66966;-34.746;138.604;2023-01-28T07:03:20;3;3;
77777;PMS5003;66966;-34.746;138.604;2023-01-28T07:05:45;4;3;
77777;PMS5003;66966;-34.746;138.604;2023-01-28T07:08:11;1;1;
77777;PMS5003;66966;-34.746;138.604;2023-01-28T07:10:36;2;2;
77777;PMS5003;66966;-34.746;138.604;2023-01-28T07:13:02;2;2;
77777;PMS5003;66966;-34.746;138.604;2023-01-28T07:15:27;2;2;
77777;PMS5003;66966;-34.746;138.604;2023-01-28T07:17:52;5;5;
77777;PMS5003;66966;-34.746;138.604;2023-01-28T07:20:17;8;7;
77777;PMS5003;66966;-34.746;138.604;2023-01-28T07:22:42;6;6;
77777;PMS5003;66966;-34.746;138.604;2023-01-28T07:25:08;11;9;
77777;PMS5003;66966;-34.746;138.604;2023-01-28T07:27:32;6;6;
77777;PMS5003;66966;-34.746;138.604;2023-01-28T07:29:58;6;4;
77777;PMS5003;66966;-34.746;138.604;2023-01-28T07:32:23;3;3;
77777;PMS5003;66966;-34.746;138.604;2023-01-28T07:34:48;4;4;
77777;PMS5003;66966;-34.746;138.604;2023-01-28T07:37:13;4;2;
77777;PMS5003;66966;-34.746;138.604;2023-01-28T07:39:38;3;2;
77777;PMS5003;66966;-34.746;138.604;2023-01-28T07:42:04;3;1;
77777;PMS5003;66966;-34.746;138.604;2023-01-28T07:44:29;3;2;
77777;PMS5003;66966;-34.746;138.604;2023-01-28T07:46:54;0;0;
77777;PMS5003;66966;-34.746;138.604;2023-01-28T07:49:19;2;2;
77777;PMS5003;66966;-34.746;138.604;2023-01-28T07:51:44;1;1;
77777;PMS5003;66966;-34.746;138.604;2023-01-28T07:54:10;1;1;
77777;PMS5003;66966;-34.746;138.604;2023-01-28T07:56:35;2;2;
77777;PMS5003;66966;-34.746;138.604;2023-01-28T07:59:00;1;1;
77777;PMS5003;66966;-34.746;138.604;2023-01-28T08:01:25;1;1;
77777;PMS5003;66966;-34.746;138.604;2023-01-28T08:03:50;0;0;
77777;PMS5003;66966;-34.746;138.604;2023-01-28T08:06:16;3;1;
77777;PMS5003;66966;-34.746;138.604;2023-01-28T08:08:41;1;1;
77777;PMS5003;66966;-34.746;138.604;2023-01-28T08:11:07;2;2;
77777;PMS5003;66966;-34.746;138.604;2023-01-28T08:13:31;0;0;
77777;PMS5003;66966;-34.746;138.604;2023-01-28T08:15:56;1;1;
77777;PMS5003;66966;-34.746;138.604;2023-01-28T08:18:22;1;1;
77777;PMS5003;66966;-34.746;138.604;2023-01-28T08:20:47;2;2;
77777;PMS5003;66966;-34.746;138.604;2023-01-28T08:23:13;1;0;
77777;PMS5003;66966;-34.746;138.604;2023-01-28T08:25:38;1;1;
77777;PMS5003;66966;-34.746;138.604;2023-01-28T08:28:03;2;1;
77777;PMS5003;66966;-34.746;138.604;2023-01-28T08:30:29;0;0;
77777;PMS5003;66966;-34.746;138.604;2023-01-28T08:32:54;2;1;
77777;PMS5003;66966;-34.746;138.604;2023-01-28T08:35:19;2;2;
77777;PMS5003;66966;-34.746;138.604;2023-01-28T08:37:44;2;2;
77777;PMS5003;66966;-34.746;138.604;2023-01-28T08:40:10;1;1;
77777;PMS5003;66966;-34.746;138.604;2023-01-28T08:42:36;2;2;
77777;PMS5003;66966;-34.746;138.604;2023-01-28T08:45:01;0;0;
77777;PMS5003;66966;-34.746;138.604;2023-01-28T08:47:26;4;3;
77777;PMS5003;66966;-34.746;138.604;2023-01-28T08:49:52;3;3;
77777;PMS5003;66966;-34.746;138.604;2023-01-28T08:52:17;6;4;
77777;PMS5003;66966;-34.746;138.604;2023-01-28T08:54:42;3;3;
77777;PMS5003;66966;-34.746;138.604;2023-01-28T08:57:07;6;4;
77777;PMS5003;66966;-34.746;138.604;2023-01-28T08:59:33;3;2;
77777;PMS5003;66966;-34.746;138.604;2023-01-28T09:01:58;4;3;
77777;PMS5003;66966;-34.746;138.604;2023-01-28T09:04:23;4;3;
77777;PMS5003;66966;-34.746;138.604;2023-01-28T09:06:49;0;0;
77777;PMS5003;66966;-34.746;138.604;2023-01-28T09:09:13;1;1;
77777;PMS5003;66966;-34.746;138.604;2023-01-28T09:11:39;1;1;
77777;PMS5003;66966;-34.746;138.604;2023-01-28T09:14:04;1;1;
77777;PMS5003;66966;-34.746;138.604;2023-01-28T09:16:29;1;1;
77777;PMS5003;66966;-34.746;138.604;2023-01-28T09:18:55;1;0;
77777;PMS5003;66966;-34.746;138.604;2023-01-28T09:21:20;3;1;
77777;PMS5003;66966;-34.746;138.604;2023-01-28T09:23:45;2;1;
77777;PMS5003;66966;-34.746;138.604;2023-01-28T09:26:10;1;0;
77777;PMS5003;66966;-34.746;138.604;2023-01-28T09:28:35;0;0;
77777;PMS5003;66966;-34.746;138.604;2023-01-28T09:31:01;0;0;
77777;PMS5003;66966;-34.746;138.604;2023-01-28T09:33:26;1;1;
77777;PMS5003;66966;-34.746;138.604;2023-01-28T09:35:51;0;0;
77777;PMS5003;66966;-34.746;138.604;2023-01-28T09:38:16;2;1;
77777;PMS5003;66966;-34.746;138.604;2023-01-28T09:40:42;0;0;
77777;PMS5003;66966;-34.746;138.604;2023-01-28T09:43:11;0;0;
77777;PMS5003;66966;-34.746;138.604;2023-01-28T09:45:32;0;0;
77777;PMS5003;66966;-34.746;138.604;2023-01-28T09:47:58;1;0;
77777;PMS5003;66966;-34.746;138.604;2023-01-28T09:50:24;1;0;
77777;PMS5003;66966;-34.746;138.604;2023-01-28T09:52:47;2;2;
77777;PMS5003;66966;-34.746;138.604;2023-01-28T09:55:16;0;0;
77777;PMS5003;66966;-34.746;138.604;2023-01-28T09:57:39;1;1;
77777;PMS5003;66966;-34.746;138.604;2023-01-28T10:02:34;3;2;
77777;PMS5003;66966;-34.746;138.604;2023-01-28T10:04:57;1;1;
77777;PMS5003;66966;-34.746;138.604;2023-01-28T10:07:22;2;1;
77777;PMS5003;66966;-34.746;138.604;2023-01-28T10:09:45;1;0;
77777;PMS5003;66966;-34.746;138.604;2023-01-28T10:12:14;0;0;
77777;PMS5003;66966;-34.746;138.604;2023-01-28T10:14:38;2;1;
77777;PMS5003;66966;-34.746;138.604;2023-01-28T10:17:02;1;0;
77777;PMS5003;66966;-34.746;138.604;2023-01-28T10:19:26;2;2;
77777;PMS5003;66966;-34.746;138.604;2023-01-28T10:21:51;2;1;
77777;PMS5003;66966;-34.746;138.604;2023-01-28T10:24:16;2;1;
77777;PMS5003;66966;-34.746;138.604;2023-01-28T10:26:41;1;1;
77777;PMS5003;66966;-34.746;138.604;2023-01-28T10:29:10;3;2;
77777;PMS5003;66966;-34.746;138.604;2023-01-28T10:31:33;1;1;
77777;PMS5003;66966;-34.746;138.604;2023-01-28T10:33:57;2;1;
77777;PMS5003;66966;-34.746;138.604;2023-01-28T10:36:22;2;1;
77777;PMS5003;66966;-34.746;138.604;2023-01-28T10:38:47;1;1;
77777;PMS5003;66966;-34.746;138.604;2023-01-28T10:41:14;2;1;
77777;PMS5003;66966;-34.746;138.604;2023-01-28T10:43:38;1;1;
77777;PMS5003;66966;-34.746;138.604;2023-01-28T10:46:05;4;2;
77777;PMS5003;66966;-34.746;138.604;2023-01-28T10:48:29;0;0;
77777;PMS5003;66966;-34.746;138.604;2023-01-28T10:50:55;1;1;
77777;PMS5003;66966;-34.746;138.604;2023-01-28T10:53:19;2;2;
77777;PMS5003;66966;-34.746;138.604;2023-01-28T10:55:47;2;2;
77777;PMS5003;66966;-34.746;138.604;2023-01-28T10:58:10;2;2;
77777;PMS5003;66966;-34.746;138.604;2023-01-28T11:00:35;3;3;
77777;PMS5003;66966;-34.746;138.604;2023-01-28T11:03:00;1;1;
77777;PMS5003;66966;-34.746;138.604;2023-01-28T11:05:26;2;2;
77777;PMS5003;66966;-34.746;138.604;2023-01-28T11:07:50;2;2;
77777;PMS5003;66966;-34.746;138.604;2023-01-28T11:12:41;2;1;
77777;PMS5003;66966;-34.746;138.604;2023-01-28T11:17:32;2;1;
77777;PMS5003;66966;-34.746;138.604;2023-01-28T11:19:58;0;0;
77777;PMS5003;66966;-34.746;138.604;2023-01-28T11:22:23;1;1;
77777;PMS5003;66966;-34.746;138.604;2023-01-28T11:24:47;0;0;
77777;PMS5003;66966;-34.746;138.604;2023-01-28T11:27:14;2;1;
77777;PMS5003;66966;-34.746;138.604;2023-01-28T11:29:38;3;2;
77777;PMS5003;66966;-34.746;138.604;2023-01-28T11:32:03;6;6;
77777;PMS5003;66966;-34.746;138.604;2023-01-28T11:34:29;1;1;
77777;PMS5003;66966;-34.746;138.604;2023-01-28T11:37:00;5;3;
77777;PMS5003;66966;-34.746;138.604;2023-01-28T11:39:20;0;0;
77777;PMS5003;66966;-34.746;138.604;2023-01-28T11:41:45;2;2;
77777;PMS5003;66966;-34.746;138.604;2023-01-28T11:44:12;3;3;
77777;PMS5003;66966;-34.746;138.604;2023-01-28T11:49:02;2;2;
77777;PMS5003;66966;-34.746;138.604;2023-01-28T11:51:30;3;2;
77777;PMS5003;66966;-34.746;138.604;2023-01-28T11:53:54;2;2;
77777;PMS5003;66966;-34.746;138.604;2023-01-28T11:56:20;3;2;
77777;PMS5003;66966;-34.746;138.604;2023-01-28T11:58:44;0;0;
77777;PMS5003;66966;-34.746;138.604;2023-01-28T12:01:08;4;4;
77777;PMS5003;66966;-34.746;138.604;2023-01-28T12:03:36;3;1;
77777;PMS5003;66966;-34.746;138.604;2023-01-28T12:05:59;2;2;
77777;PMS5003;66966;-34.746;138.604;2023-01-28T12:08:23;3;3;
77777;PMS5003;66966;-34.746;138.604;2023-01-28T12:10:51;2;2;
77777;PMS5003;66966;-34.746;138.604;2023-01-28T12:13:17;4;3;
77777;PMS5003;66966;-34.746;138.604;2023-01-28T12:15:43;2;2;
77777;PMS5003;66966;-34.746;138.604;2023-01-28T12:18:08;3;3;
77777;PMS5003;66966;-34.746;138.604;2023-01-28T12:20:30;5;4;
77777;PMS5003;66966;-34.746;138.604;2023-01-28T12:22:59;4;4;
77777;PMS5003;66966;-34.746;138.604;2023-01-28T12:25:21;5;5;
77777;PMS5003;66966;-34.746;138.604;2023-01-28T12:27:46;4;4;
77777;PMS5003;66966;-34.746;138.604;2023-01-28T12:30:15;7;4;
77777;PMS5003;66966;-34.746;138.604;2023-01-28T12:32:39;5;4;
77777;PMS5003;66966;-34.746;138.604;2023-01-28T12:35:05;4;3;
77777;PMS5003;66966;-34.746;138.604;2023-01-28T12:37:29;3;3;
77777;PMS5003;66966;-34.746;138.604;2023-01-28T12:39:54;4;4;
77777;PMS5003;66966;-34.746;138.604;2023-01-28T12:42:18;2;2;
77777;PMS5003;66966;-34.746;138.604;2023-01-28T12:44:42;3;3;
77777;PMS5003;66966;-34.746;138.604;2023-01-28T12:47:08;6;5;
77777;PMS5003;66966;-34.746;138.604;2023-01-28T12:49:33;6;4;
77777;PMS5003;66966;-34.746;138.604;2023-01-28T12:51:58;5;5;
77777;PMS5003;66966;-34.746;138.604;2023-01-28T12:54:24;3;3;
77777;PMS5003;66966;-34.746;138.604;2023-01-28T12:56:49;5;4;
77777;PMS5003;66966;-34.746;138.604;2023-01-28T12:59:14;4;4;
77777;PMS5003;66966;-34.746;138.604;2023-01-28T13:01:40;4;4;
77777;PMS5003;66966;-34.746;138.604;2023-01-28T13:04:05;4;3;
77777;PMS5003;66966;-34.746;138.604;2023-01-28T13:06:30;4;4;
77777;PMS5003;66966;-34.746;138.604;2023-01-28T13:08:56;4;3;
77777;PMS5003;66966;-34.746;138.604;2023-01-28T13:11:19;4;3;
77777;PMS5003;66966;-34.746;138.604;2023-01-28T13:13:45;4;4;
77777;PMS5003;66966;-34.746;138.604;2023-01-28T13:16:10;4;3;
77777;PMS5003;66966;-34.746;138.604;2023-01-28T13:21:01;4;4;
77777;PMS5003;66966;-34.746;138.604;2023-01-28T13:23:36;2;2;
77777;PMS5003;66966;-34.746;138.604;2023-01-28T13:25:52;6;5;
77777;PMS5003;66966;-34.746;138.604;2023-01-28T13:30:47;3;3;
77777;PMS5003;66966;-34.746;138.604;2023-01-28T13:35:33;4;4;
77777;PMS5003;66966;-34.746;138.604;2023-01-28T13:37:57;2;2;
77777;PMS5003;66966;-34.746;138.604;2023-01-28T13:40:24;3;3;
77777;PMS5003;66966;-34.746;138.604;2023-01-28T13:47:38;2;2;
77777;PMS5003;66966;-34.746;138.604;2023-01-28T13:50:05;2;2;
77777;PMS5003;66966;-34.746;138.604;2023-01-28T13:52:29;3;3;
77777;PMS5003;66966;-34.746;138.604;2023-01-28T13:54:57;2;2;
77777;PMS5003;66966;-34.746;138.604;2023-01-28T13:59:48;2;1;
77777;PMS5003;66966;-34.746;138.604;2023-01-28T14:02:17;5;3;
77777;PMS5003;66966;-34.746;138.604;2023-01-28T14:04:40;1;1;
77777;PMS5003;66966;-34.746;138.604;2023-01-28T14:07:05;3;3;
77777;PMS5003;66966;-34.746;138.604;2023-01-28T14:09:31;2;2;
77777;PMS5003;66966;-34.746;138.604;2023-01-28T14:16:43;1;1;
77777;PMS5003;66966;-34.746;138.604;2023-01-28T14:19:08;2;2;
77777;PMS5003;66966;-34.746;138.604;2023-01-28T14:21:33;1;1;
77777;PMS5003;66966;-34.746;138.604;2023-01-28T14:23:58;2;2;
77777;PMS5003;66966;-34.746;138.604;2023-01-28T14:26:25;3;2;
77777;PMS5003;66966;-34.746;138.604;2023-01-28T14:28:50;2;2;
77777;PMS5003;66966;-34.746;138.604;2023-01-28T14:31:15;3;2;
77777;PMS5003;66966;-34.746;138.604;2023-01-28T14:33:39;2;2;
77777;PMS5003;66966;-34.746;138.604;2023-01-28T14:36:04;2;2;
77777;PMS5003;66966;-34.746;138.604;2023-01-28T14:38:29;3;3;
77777;PMS5003;66966;-34.746;138.604;2023-01-28T14:40:54;3;3;
77777;PMS5003;66966;-34.746;138.604;2023-01-28T14:43:21;4;4;
77777;PMS5003;66966;-34.746;138.604;2023-01-28T14:55:31;8;8;
77777;PMS5003;66966;-34.746;138.604;2023-01-28T14:57:52;9;7;
77777;PMS5003;66966;-34.746;138.604;2023-01-28T15:00:17;8;8;
77777;PMS5003;66966;-34.746;138.604;2023-01-28T15:02:42;8;7;
77777;PMS5003;66966;-34.746;138.604;2023-01-28T15:05:08;5;5;
77777;PMS5003;66966;-34.746;138.604;2023-01-28T15:07:33;4;3;
77777;PMS5003;66966;-34.746;138.604;2023-01-28T15:09:59;4;4;
77777;PMS5003;66966;-34.746;138.604;2023-01-28T15:12:23;4;4;
77777;PMS5003;66966;-34.746;138.604;2023-01-28T15:14:48;4;3;
77777;PMS5003;66966;-34.746;138.604;2023-01-28T15:17:17;4;4;
77777;PMS5003;66966;-34.746;138.604;2023-01-28T15:19:39;3;3;
77777;PMS5003;66966;-34.746;138.604;2023-01-28T15:22:05;3;3;
77777;PMS5003;66966;-34.746;138.604;2023-01-28T15:24:29;2;2;
77777;PMS5003;66966;-34.746;138.604;2023-01-28T15:26:55;3;3;
77777;PMS5003;66966;-34.746;138.604;2023-01-28T15:29:22;2;2;
77777;PMS5003;66966;-34.746;138.604;2023-01-28T15:31:47;3;3;
77777;PMS5003;66966;-34.746;138.604;2023-01-28T15:34:11;3;3;
77777;PMS5003;66966;-34.746;138.604;2023-01-28T15:36:36;3;3;
77777;PMS5003;66966;-34.746;138.604;2023-01-28T15:39:01;2;1;
77777;PMS5003;66966;-34.746;138.604;2023-01-28T15:41:27;2;2;
77777;PMS5003;66966;-34.746;138.604;2023-01-28T15:43:52;1;1;
77777;PMS5003;66966;-34.746;138.604;2023-01-28T15:46:17;3;3;
77777;PMS5003;66966;-34.746;138.604;2023-01-28T15:48:43;1;0;
77777;PMS5003;66966;-34.746;138.604;2023-01-28T15:51:08;1;1;
77777;PMS5003;66966;-34.746;138.604;2023-01-28T15:53:33;1;1;
77777;PMS5003;66966;-34.746;138.604;2023-01-28T15:56:04;1;1;
77777;PMS5003;66966;-34.746;138.604;2023-01-28T15:58:28;2;1;
77777;PMS5003;66966;-34.746;138.604;2023-01-28T16:00:49;1;1;
77777;PMS5003;66966;-34.746;138.604;2023-01-28T16:03:18;2;2;
77777;PMS5003;66966;-34.746;138.604;2023-01-28T16:05:40;2;2;
77777;PMS5003;66966;-34.746;138.604;2023-01-28T16:08:07;2;1;
77777;PMS5003;66966;-34.746;138.604;2023-01-28T16:10:30;2;2;
77777;PMS5003;66966;-34.746;138.604;2023-01-28T16:12:57;2;2;
77777;PMS5003;66966;-34.746;138.604;2023-01-28T16:15:21;2;2;
77777;PMS5003;66966;-34.746;138.604;2023-01-28T16:17:46;2;2;
77777;PMS5003;66966;-34.746;138.604;2023-01-28T16:22:37;2;2;
77777;PMS5003;66966;-34.746;138.604;2023-01-28T16:25:02;3;3;
77777;PMS5003;66966;-34.746;138.604;2023-01-28T16:27:28;2;2;
77777;PMS5003;66966;-34.746;138.604;2023-01-28T16:29:52;4;4;